Time;durP1;ratioP1;P1;durP2;ratioP2;P2;SDS_P1;SDS_P2;PMS_P1;PMS_P2;Temp;Humidity;BMP_temperature;BMP_pressure;BME280_temperature;BME280_humidity;BME280_pressure;Samples;Min_cycle;Max_cycle;Signal;HPM_P1;HPM_P2
2023/04/14 00:00:23;;;;;;;5.10;3.00;;;4.30;99.90;;;;;;5086984;28;20097;-80
2023/04/14 00:02:49;;;;;;;8.40;3.97;;;4.40;99.90;;;;;;5084976;28;20042;-79
2023/04/14 00:05:15;;;;;;;6.73;3.77;;;4.30;99.90;;;;;;5085322;28;20039;-79
2023/04/14 00:07:40;;;;;;;6.43;3.50;;;4.30;99.90;;;;;;5083634;28;20070;-79
2023/04/14 00:10:06;;;;;;;6.07;3.60;;;4.30;99.90;;;;;;5086241;28;20036;-79
2023/04/14 00:12:32;;;;;;;9.27;3.80;;;4.30;99.90;;;;;;5086094;28;20085;-80
2023/04/14 00:14:57;;;;;;;8.10;3.30;;;4.30;99.90;;;;;;5086681;28;20106;-79
2023/04/14 00:17:23;;;;;;;7.97;3.80;;;4.30;99.90;;;;;;5084829;28;20039;-79
2023/04/14 00:19:48;;;;;;;8.77;4.87;;;4.30;99.90;;;;;;5083611;28;20051;-79
2023/04/14 00:22:14;;;;;;;8.77;4.73;;;4.30;99.90;;;;;;5086954;28;20054;-80
2023/04/14 00:24:42;;;;;;;6.67;4.17;;;4.30;99.90;;;;;;5090683;28;20028;-80
2023/04/14 00:27:09;;;;;;;8.37;3.80;;;4.30;99.90;;;;;;5090070;28;20032;-80
2023/04/14 00:29:34;;;;;;;6.07;3.93;;;4.20;99.90;;;;;;5088824;28;20035;-80
2023/04/14 00:32:00;;;;;;;5.70;3.70;;;4.20;99.90;;;;;;5090233;28;20498;-79
2023/04/14 00:34:26;;;;;;;8.23;3.90;;;4.20;99.90;;;;;;5089314;28;20675;-80
2023/04/14 00:36:51;;;;;;;5.87;3.63;;;4.20;99.90;;;;;;5088775;28;20027;-79
2023/04/14 00:39:17;;;;;;;7.40;4.37;;;4.20;99.90;;;;;;5090920;28;20093;-80
2023/04/14 00:41:43;;;;;;;6.60;4.03;;;4.20;99.90;;;;;;5089284;28;20055;-79
2023/04/14 00:44:08;;;;;;;9.60;3.70;;;4.20;99.90;;;;;;5089024;28;20040;-80
2023/04/14 00:46:35;;;;;;;10.37;4.20;;;4.20;99.90;;;;;;5088092;28;20380;-80
2023/04/14 00:49:02;;;;;;;5.83;3.77;;;4.20;99.90;;;;;;5087718;28;20298;-80
2023/04/14 00:51:27;;;;;;;8.77;4.63;;;4.20;99.90;;;;;;5089375;28;20024;-80
2023/04/14 00:53:54;;;;;;;7.63;4.50;;;4.20;99.90;;;;;;5088899;28;20028;-80
2023/04/14 00:56:21;;;;;;;8.47;3.80;;;4.20;99.90;;;;;;5088681;28;20508;-80
2023/04/14 00:58:47;;;;;;;8.83;4.70;;;4.20;99.90;;;;;;5088269;28;20127;-80
2023/04/14 01:01:13;;;;;;;6.90;4.83;;;4.20;99.90;;;;;;5088235;28;20051;-80
2023/04/14 01:03:38;;;;;;;8.53;3.87;;;4.20;99.90;;;;;;5088865;28;20537;-80
2023/04/14 01:06:04;;;;;;;8.37;4.23;;;4.20;99.90;;;;;;5087979;28;20024;-80
2023/04/14 01:08:30;;;;;;;9.47;4.80;;;4.20;99.90;;;;;;5088891;28;20397;-80
2023/04/14 01:11:24;;;;;;;8.97;4.70;;;4.20;99.90;;;;;;5087698;28;20061;-80
2023/04/14 01:14:06;;;;;;;8.60;5.17;;;4.20;99.90;;;;;;5086947;28;20164;-80
2023/04/14 01:16:34;;;;;;;8.83;4.40;;;4.20;99.90;;;;;;5088756;28;20038;-79
2023/04/14 01:19:25;;;;;;;7.33;4.80;;;4.20;99.90;;;;;;5087971;28;20036;-79
2023/04/14 01:21:55;;;;;;;7.63;4.27;;;4.20;99.90;;;;;;5089915;28;20036;-80
2023/04/14 01:24:30;;;;;;;7.83;4.53;;;4.20;99.90;;;;;;5089099;28;20177;-80
2023/04/14 01:27:31;;;;;;;8.88;4.50;;;4.20;99.90;;;;;;5088507;28;20024;-80
2023/04/14 01:30:19;;;;;;;8.03;4.73;;;4.20;99.90;;;;;;5088690;28;20032;-79
2023/04/14 01:32:46;;;;;;;8.37;4.30;;;4.20;99.90;;;;;;5087319;28;20081;-80
2023/04/14 01:35:19;;;;;;;8.03;4.07;;;4.20;99.90;;;;;;5088570;28;20079;-80
2023/04/14 01:37:52;;;;;;;7.67;4.77;;;4.20;99.90;;;;;;5088283;28;20032;-80
2023/04/14 01:40:19;;;;;;;6.70;4.50;;;4.20;99.90;;;;;;5089204;28;20487;-80
2023/04/14 01:42:50;;;;;;;7.60;4.60;;;4.20;99.90;;;;;;5087721;28;20031;-80
2023/04/14 01:45:25;;;;;;;9.53;4.40;;;4.20;99.90;;;;;;5089101;28;20052;-80
2023/04/14 01:47:51;;;;;;;7.80;4.15;;;4.20;99.90;;;;;;5088843;28;20024;-80
2023/04/14 01:50:19;;;;;;;6.70;4.27;;;4.20;99.90;;;;;;5090379;28;20044;-80
2023/04/14 01:52:50;;;;;;;5.93;4.23;;;4.20;99.90;;;;;;5090072;28;20061;-80
2023/04/14 01:55:18;;;;;;;10.13;4.73;;;4.20;99.90;;;;;;5090845;28;20449;-80
2023/04/14 01:57:48;;;;;;;8.97;4.17;;;4.20;99.90;;;;;;5090814;28;20058;-79
2023/04/14 02:00:16;;;;;;;8.13;4.90;;;4.20;99.90;;;;;;5089588;28;20050;-80
2023/04/14 02:02:45;;;;;;;7.40;4.67;;;4.20;99.90;;;;;;5089887;28;20024;-80
2023/04/14 02:05:12;;;;;;;8.80;5.00;;;4.20;99.90;;;;;;5090957;28;20391;-79
2023/04/14 02:07:39;;;;;;;7.97;4.70;;;4.20;99.90;;;;;;5089936;28;20235;-80
2023/04/14 02:10:10;;;;;;;7.07;4.27;;;4.20;99.90;;;;;;5088942;28;20028;-80
2023/04/14 02:12:40;;;;;;;7.20;4.43;;;4.20;99.90;;;;;;5091623;28;20055;-80
2023/04/14 02:15:12;;;;;;;7.97;4.70;;;4.20;99.90;;;;;;5089787;28;20032;-79
2023/04/14 02:17:41;;;;;;;6.37;4.13;;;4.20;99.90;;;;;;5088586;28;20051;-79
2023/04/14 02:20:09;;;;;;;5.90;4.47;;;4.30;99.90;;;;;;5088647;28;20062;-80
2023/04/14 02:22:35;;;;;;;7.27;4.40;;;4.30;99.90;;;;;;5090488;28;20073;-80
2023/04/14 02:25:01;;;;;;;7.30;4.70;;;4.30;99.90;;;;;;5089970;28;21726;-80
2023/04/14 02:27:53;;;;;;;8.20;4.57;;;4.30;99.90;;;;;;5087808;28;20036;-79
2023/04/14 02:30:34;;;;;;;12.40;5.63;;;4.30;99.90;;;;;;5087702;28;20475;-80
2023/04/14 02:33:05;;;;;;;7.77;5.60;;;4.30;99.90;;;;;;5088328;28;20024;-80
2023/04/14 02:35:47;;;;;;;8.43;6.10;;;4.30;99.90;;;;;;5087295;28;20032;-80
2023/04/14 02:38:22;;;;;;;6.23;4.87;;;4.30;99.90;;;;;;5088673;28;20044;-80
2023/04/14 02:40:48;;;;;;;8.38;4.82;;;4.30;99.90;;;;;;5068852;28;20040;-80
2023/04/14 02:43:23;;;;;;;5.80;4.60;;;4.30;99.90;;;;;;5089741;28;20032;-80
2023/04/14 02:45:51;;;;;;;5.85;4.28;;;4.30;99.90;;;;;;5090194;28;20046;-81
2023/04/14 02:48:18;;;;;;;6.10;4.30;;;4.30;99.90;;;;;;5089602;28;20032;-80
2023/04/14 02:50:47;;;;;;;7.07;4.37;;;4.20;99.90;;;;;;5088061;28;20027;-80
2023/04/14 02:53:17;;;;;;;6.80;4.40;;;4.20;99.90;;;;;;5089332;28;20030;-81
2023/04/14 02:55:45;;;;;;;4.87;4.23;;;4.20;99.90;;;;;;5088640;28;20034;-80
2023/04/14 02:58:11;;;;;;;6.43;4.23;;;4.20;99.90;;;;;;5089833;28;20038;-80
2023/04/14 03:00:39;;;;;;;5.13;4.30;;;4.20;99.90;;;;;;5088577;28;20503;-80
2023/04/14 03:03:06;;;;;;;7.10;5.00;;;4.10;99.90;;;;;;5088539;28;20114;-80
2023/04/14 03:05:32;;;;;;;8.63;5.40;;;4.20;99.90;;;;;;5088556;28;20028;-80
2023/04/14 03:07:59;;;;;;;6.57;5.60;;;4.10;99.90;;;;;;5088688;28;20023;-80
2023/04/14 03:10:26;;;;;;;7.93;5.17;;;4.20;99.90;;;;;;5088970;28;20377;-80
2023/04/14 03:12:52;;;;;;;8.30;6.30;;;4.20;99.90;;;;;;5088529;28;20089;-79
2023/04/14 03:15:19;;;;;;;10.30;5.67;;;4.20;99.90;;;;;;5087559;28;20495;-80
2023/04/14 03:17:52;;;;;;;7.47;5.27;;;4.20;99.90;;;;;;5087565;28;20040;-80
2023/04/14 03:20:20;;;;;;;7.87;5.90;;;4.20;99.90;;;;;;5087638;28;20046;-80
2023/04/14 03:22:48;;;;;;;9.93;5.63;;;4.30;99.90;;;;;;5068550;28;20039;-80
2023/04/14 03:25:14;;;;;;;6.63;5.80;;;4.30;99.90;;;;;;5089333;28;20166;-80
2023/04/14 03:27:43;;;;;;;7.03;5.37;;;4.30;99.90;;;;;;5088133;28;20078;-79
2023/04/14 03:30:12;;;;;;;7.07;5.50;;;4.30;99.90;;;;;;5086943;28;20391;-80
2023/04/14 03:32:40;;;;;;;9.80;5.47;;;4.30;99.90;;;;;;5087243;28;20127;-80
2023/04/14 03:35:08;;;;;;;6.77;5.13;;;4.40;99.90;;;;;;5087668;28;20031;-80
2023/04/14 03:37:38;;;;;;;5.80;5.07;;;4.40;99.90;;;;;;5090250;28;20028;-80
2023/04/14 03:40:07;;;;;;;7.47;5.13;;;4.40;99.90;;;;;;5088376;28;20041;-80
2023/04/14 03:42:34;;;;;;;8.27;5.20;;;4.40;99.90;;;;;;5088608;28;20028;-80
2023/04/14 03:45:01;;;;;;;9.17;5.40;;;4.40;99.90;;;;;;5088009;28;20113;-79
2023/04/14 03:47:29;;;;;;;8.37;6.13;;;4.40;99.90;;;;;;5089385;28;20115;-80
2023/04/14 03:49:58;;;;;;;8.70;6.03;;;4.40;99.90;;;;;;5088276;28;20070;-80
2023/04/14 03:52:25;;;;;;;7.97;6.07;;;4.40;99.90;;;;;;5088997;28;20028;-80
2023/04/14 03:54:53;;;;;;;9.93;6.80;;;4.40;99.90;;;;;;5088462;28;20036;-80
2023/04/14 03:57:21;;;;;;;10.93;6.07;;;4.40;99.90;;;;;;5090785;28;20032;-80
2023/04/14 03:59:49;;;;;;;9.23;6.20;;;4.40;99.90;;;;;;5092207;28;20100;-80
2023/04/14 04:02:15;;;;;;;8.13;6.30;;;4.40;99.90;;;;;;5091397;28;20122;-80
2023/04/14 04:04:42;;;;;;;8.23;6.53;;;4.50;99.90;;;;;;5092679;28;20024;-80
2023/04/14 04:07:12;;;;;;;11.07;6.50;;;4.50;99.90;;;;;;5091059;28;20024;-80
2023/04/14 04:09:38;;;;;;;10.90;7.57;;;4.50;99.90;;;;;;5091017;28;20043;-79
2023/04/14 04:12:06;;;;;;;12.00;7.20;;;4.50;99.90;;;;;;5091550;28;20023;-79
2023/04/14 04:14:32;;;;;;;14.27;9.03;;;4.50;99.90;;;;;;5092585;28;20051;-79
2023/04/14 04:17:04;;;;;;;13.20;7.90;;;4.50;99.90;;;;;;5091225;28;20081;-79
2023/04/14 04:19:31;;;;;;;10.63;7.40;;;4.50;99.90;;;;;;5090440;28;20024;-79
2023/04/14 04:21:58;;;;;;;13.27;8.27;;;4.50;99.90;;;;;;5093254;28;20106;-79
2023/04/14 04:24:27;;;;;;;15.47;8.30;;;4.50;99.90;;;;;;5093522;28;20039;-79
2023/04/14 04:26:54;;;;;;;12.97;8.47;;;4.50;99.90;;;;;;5091653;28;20096;-79
2023/04/14 04:29:23;;;;;;;15.53;8.70;;;4.50;99.90;;;;;;5090215;28;20032;-79
2023/04/14 04:31:49;;;;;;;17.13;9.80;;;4.60;99.90;;;;;;5092063;28;20053;-79
2023/04/14 04:34:18;;;;;;;12.17;10.00;;;4.50;99.90;;;;;;5089720;28;20035;-79
2023/04/14 04:36:44;;;;;;;14.27;9.47;;;4.50;99.90;;;;;;5090829;28;20529;-79
2023/04/14 04:39:09;;;;;;;16.93;10.77;;;4.60;99.90;;;;;;5090941;28;20062;-79
2023/04/14 04:41:35;;;;;;;15.97;10.57;;;4.60;99.90;;;;;;5089129;28;20061;-79
2023/04/14 04:44:01;;;;;;;15.33;10.57;;;4.50;99.90;;;;;;5091209;28;20045;-79
2023/04/14 04:46:48;;;;;;;15.60;10.37;;;4.60;99.90;;;;;;5091328;28;20480;-79
2023/04/14 04:49:14;;;;;;;14.97;10.97;;;4.60;99.90;;;;;;5090988;28;20700;-79
2023/04/14 04:51:39;;;;;;;15.57;10.67;;;4.60;99.90;;;;;;5088851;28;20024;-79
2023/04/14 04:54:05;;;;;;;16.63;10.83;;;4.60;99.90;;;;;;5091271;28;20031;-79
2023/04/14 04:56:31;;;;;;;15.60;11.00;;;4.60;99.90;;;;;;5090057;28;20062;-79
2023/04/14 04:58:58;;;;;;;21.37;13.00;;;4.50;99.90;;;;;;5091058;28;20040;-79
2023/04/14 05:01:23;;;;;;;17.37;11.67;;;4.60;99.90;;;;;;5086846;28;20072;-79
2023/04/14 05:03:50;;;;;;;17.80;11.03;;;4.60;99.90;;;;;;5085707;28;20123;-79
2023/04/14 05:06:15;;;;;;;15.97;11.30;;;4.60;99.90;;;;;;5084683;28;20499;-79
2023/04/14 05:08:41;;;;;;;17.57;11.33;;;4.60;99.90;;;;;;5087895;28;20032;-79
2023/04/14 05:11:07;;;;;;;21.63;12.20;;;4.60;99.90;;;;;;5086578;28;20035;-79
2023/04/14 05:13:33;;;;;;;19.30;11.60;;;4.60;99.90;;;;;;5085774;28;20391;-79
2023/04/14 05:16:05;;;;;;;19.67;10.90;;;4.60;99.90;;;;;;5086335;28;20356;-79
2023/04/14 05:18:31;;;;;;;15.40;11.10;;;4.60;99.90;;;;;;5088813;28;20491;-79
2023/04/14 05:21:05;;;;;;;15.57;10.40;;;4.60;99.90;;;;;;5086333;28;20088;-79
2023/04/14 05:23:35;;;;;;;17.07;11.13;;;4.60;99.90;;;;;;5089219;28;20414;-79
2023/04/14 05:26:01;;;;;;;19.40;10.80;;;4.70;99.90;;;;;;5087709;28;20073;-79
2023/04/14 05:28:27;;;;;;;14.67;10.23;;;4.70;99.90;;;;;;5086634;28;20044;-79
2023/04/14 05:30:52;;;;;;;19.73;10.30;;;4.60;99.90;;;;;;5087876;28;20383;-79
2023/04/14 05:33:18;;;;;;;14.73;10.80;;;4.70;99.90;;;;;;5089954;28;21010;-79
2023/04/14 05:35:44;;;;;;;16.50;9.63;;;4.70;99.90;;;;;;5086819;28;20155;-79
2023/04/14 05:38:10;;;;;;;15.83;10.50;;;4.70;99.90;;;;;;5092754;28;20057;-79
2023/04/14 05:40:36;;;;;;;17.57;11.97;;;4.60;99.90;;;;;;5089028;28;20104;-79
2023/04/14 05:43:02;;;;;;;16.87;11.40;;;4.70;99.90;;;;;;5089966;28;20702;-79
2023/04/14 05:45:27;;;;;;;18.10;11.20;;;4.70;99.90;;;;;;5092537;28;20032;-79
2023/04/14 05:47:53;;;;;;;17.53;11.20;;;4.70;99.90;;;;;;5093592;28;20096;-79
2023/04/14 05:50:18;;;;;;;16.83;11.57;;;4.70;99.90;;;;;;5091592;28;20038;-79
2023/04/14 05:52:44;;;;;;;19.23;11.40;;;4.70;99.90;;;;;;5090553;28;20030;-78
2023/04/14 05:55:10;;;;;;;17.43;10.67;;;4.70;99.90;;;;;;5088875;28;20395;-79
2023/04/14 05:57:36;;;;;;;19.43;11.33;;;4.70;99.90;;;;;;5092367;28;20019;-79
2023/04/14 06:00:01;;;;;;;20.00;10.73;;;4.70;99.90;;;;;;5093132;28;20054;-79
2023/04/14 06:02:27;;;;;;;18.27;10.40;;;4.70;99.90;;;;;;5094974;28;20040;-79
2023/04/14 06:04:52;;;;;;;19.63;11.43;;;4.70;99.90;;;;;;5095054;28;20104;-79
2023/04/14 06:07:18;;;;;;;14.63;9.70;;;4.70;99.90;;;;;;5095062;28;21450;-79
2023/04/14 06:09:45;;;;;;;16.33;10.43;;;4.70;99.90;;;;;;5090945;28;20379;-79
2023/04/14 06:12:11;;;;;;;15.83;9.40;;;4.70;99.90;;;;;;5073337;28;20143;-79
2023/04/14 06:14:37;;;;;;;13.63;9.47;;;4.70;99.90;;;;;;5094609;28;20020;-79
2023/04/14 06:17:02;;;;;;;12.90;8.70;;;4.70;99.90;;;;;;5091707;28;20507;-79
2023/04/14 06:19:28;;;;;;;15.03;8.37;;;4.80;99.90;;;;;;5088523;28;20044;-79
2023/04/14 06:21:54;;;;;;;14.37;8.37;;;4.80;99.90;;;;;;5087229;28;20472;-79
2023/04/14 06:24:19;;;;;;;10.63;7.93;;;4.90;99.90;;;;;;5085929;28;20032;-79
2023/04/14 06:26:45;;;;;;;11.57;7.30;;;4.90;99.90;;;;;;5089355;28;20024;-79
2023/04/14 06:29:10;;;;;;;11.53;8.03;;;4.90;99.90;;;;;;5094480;28;20056;-79
2023/04/14 06:31:36;;;;;;;9.43;6.80;;;5.00;99.90;;;;;;5093660;28;20349;-80
2023/04/14 06:34:02;;;;;;;11.73;6.53;;;5.00;99.90;;;;;;5094891;28;20039;-79
2023/04/14 06:36:28;;;;;;;12.00;6.63;;;5.00;99.90;;;;;;5072739;28;21525;-80
2023/04/14 06:38:53;;;;;;;9.13;6.73;;;5.00;99.90;;;;;;5095800;28;20036;-79
2023/04/14 06:41:19;;;;;;;15.13;7.63;;;5.10;99.90;;;;;;5094294;28;20047;-80
2023/04/14 06:43:45;;;;;;;11.43;6.57;;;5.10;99.90;;;;;;5095440;28;20036;-80
2023/04/14 06:46:11;;;;;;;12.40;6.20;;;5.10;99.90;;;;;;5092228;28;20055;-79
2023/04/14 06:48:37;;;;;;;10.53;5.87;;;5.10;99.90;;;;;;5095073;28;20047;-79
2023/04/14 06:51:02;;;;;;;10.57;6.17;;;5.20;99.90;;;;;;5094542;28;20032;-80
2023/04/14 06:53:28;;;;;;;12.80;6.50;;;5.20;99.90;;;;;;5094801;28;20043;-80
2023/04/14 06:56:00;;;;;;;9.63;5.73;;;5.20;99.90;;;;;;5095353;28;20035;-79
2023/04/14 06:58:27;;;;;;;9.33;5.20;;;5.20;99.90;;;;;;5095791;28;20024;-80
2023/04/14 07:00:57;;;;;;;8.33;5.33;;;5.30;99.90;;;;;;5092255;28;20044;-80
2023/04/14 07:03:23;;;;;;;11.77;5.73;;;5.30;99.90;;;;;;5093657;28;20055;-79
2023/04/14 07:05:49;;;;;;;10.20;5.17;;;5.40;99.90;;;;;;5096778;28;20027;-79
2023/04/14 07:08:15;;;;;;;10.87;5.30;;;5.40;99.90;;;;;;5098034;28;20546;-79
2023/04/14 07:10:41;;;;;;;10.80;5.20;;;5.40;99.90;;;;;;5097321;28;20020;-79
2023/04/14 07:13:06;;;;;;;9.90;5.37;;;5.40;99.90;;;;;;5099410;28;20136;-80
2023/04/14 07:15:32;;;;;;;7.10;4.80;;;5.40;99.90;;;;;;5097871;28;20077;-79
2023/04/14 07:17:57;;;;;;;8.97;5.00;;;5.40;99.90;;;;;;5096965;28;20036;-79
2023/04/14 07:20:24;;;;;;;11.13;5.00;;;5.40;99.90;;;;;;5092750;28;20789;-79
2023/04/14 07:22:50;;;;;;;9.87;5.60;;;5.40;99.90;;;;;;5095761;28;20028;-79
2023/04/14 07:25:16;;;;;;;9.27;5.20;;;5.40;99.90;;;;;;5096746;28;21428;-79
2023/04/14 07:27:41;;;;;;;8.40;4.77;;;5.40;99.90;;;;;;5095529;28;20059;-79
2023/04/14 07:30:07;;;;;;;9.97;5.27;;;5.50;99.90;;;;;;5093703;28;20141;-79
2023/04/14 07:32:33;;;;;;;8.83;4.77;;;5.50;99.90;;;;;;5101265;28;20032;-80
2023/04/14 07:34:59;;;;;;;8.93;5.40;;;5.50;99.90;;;;;;5100331;28;20062;-80
2023/04/14 07:37:25;;;;;;;9.67;5.30;;;5.50;99.90;;;;;;5102103;28;20023;-80
2023/04/14 07:39:51;;;;;;;8.13;4.63;;;5.60;99.90;;;;;;5098991;28;20050;-80
2023/04/14 07:42:19;;;;;;;9.13;5.10;;;5.60;99.90;;;;;;5099630;28;20593;-80
2023/04/14 07:44:45;;;;;;;12.70;5.17;;;5.60;99.90;;;;;;5101091;28;20032;-80
2023/04/14 07:47:10;;;;;;;7.40;4.80;;;5.60;99.90;;;;;;5101654;28;20067;-79
2023/04/14 07:49:36;;;;;;;8.90;5.23;;;5.70;99.90;;;;;;5099284;28;20032;-80
2023/04/14 07:52:02;;;;;;;10.13;5.00;;;5.70;99.90;;;;;;5099654;28;20047;-79
2023/04/14 07:54:27;;;;;;;8.90;4.93;;;5.70;99.90;;;;;;5101028;28;20024;-79
2023/04/14 07:56:53;;;;;;;8.20;4.93;;;5.70;99.90;;;;;;5100221;28;20217;-80
2023/04/14 07:59:19;;;;;;;8.33;5.23;;;5.70;99.90;;;;;;5099518;28;20046;-79
2023/04/14 08:01:45;;;;;;;9.67;4.90;;;5.80;99.90;;;;;;5100993;28;20046;-79
2023/04/14 08:04:11;;;;;;;9.03;5.00;;;5.80;99.90;;;;;;5101533;28;20024;-79
2023/04/14 08:06:36;;;;;;;11.03;4.80;;;5.90;99.90;;;;;;5102383;28;20032;-79
2023/04/14 08:09:02;;;;;;;9.70;4.20;;;5.90;99.90;;;;;;5073011;28;20050;-72
2023/04/14 08:11:28;;;;;;;7.33;4.53;;;6.00;99.90;;;;;;5094717;28;20154;-79
2023/04/14 08:13:53;;;;;;;7.67;4.20;;;6.00;99.90;;;;;;5098349;28;20027;-79
2023/04/14 08:16:19;;;;;;;10.73;4.50;;;6.00;99.90;;;;;;5097734;28;21557;-78
2023/04/14 08:18:44;;;;;;;7.30;3.97;;;6.10;99.90;;;;;;5098789;28;20491;-79
2023/04/14 08:21:10;;;;;;;6.57;4.40;;;6.10;99.90;;;;;;5093861;28;20050;-79
2023/04/14 08:23:36;;;;;;;9.20;4.87;;;6.20;99.90;;;;;;5094787;28;20039;-79
2023/04/14 08:26:03;;;;;;;9.07;4.53;;;6.20;99.90;;;;;;5095415;28;20601;-79
2023/04/14 08:28:29;;;;;;;10.07;5.03;;;6.30;99.90;;;;;;5096542;28;20028;-79
2023/04/14 08:30:55;;;;;;;8.73;4.43;;;6.30;99.90;;;;;;5094581;28;20042;-79
2023/04/14 08:33:20;;;;;;;10.73;5.27;;;6.30;99.90;;;;;;5096684;28;20849;-79
2023/04/14 08:35:46;;;;;;;7.43;4.73;;;6.30;99.90;;;;;;5092179;28;20073;-78
2023/04/14 08:38:12;;;;;;;10.03;4.23;;;6.30;99.90;;;;;;5091579;28;20042;-79
2023/04/14 08:40:39;;;;;;;6.20;4.23;;;6.40;99.90;;;;;;5089569;28;20183;-79
2023/04/14 08:43:06;;;;;;;9.33;5.00;;;6.40;99.90;;;;;;5090970;28;20032;-78
2023/04/14 08:45:33;;;;;;;8.00;5.07;;;6.50;99.90;;;;;;5087796;28;20032;-79
2023/04/14 08:48:00;;;;;;;9.60;4.40;;;6.60;99.90;;;;;;5085555;28;20028;-79
2023/04/14 08:50:36;;;;;;;9.20;4.37;;;6.60;99.90;;;;;;5084268;28;20035;-79
2023/04/14 08:53:04;;;;;;;8.17;3.97;;;6.70;99.90;;;;;;5086596;28;20036;-79
2023/04/14 08:55:31;;;;;;;8.67;3.93;;;6.70;99.90;;;;;;5085621;28;20031;-78
2023/04/14 08:57:59;;;;;;;7.97;4.57;;;6.70;99.90;;;;;;5084217;28;20043;-79
2023/04/14 09:00:25;;;;;;;7.67;4.50;;;6.70;99.90;;;;;;5080041;28;20044;-78
2023/04/14 09:02:51;;;;;;;7.93;3.80;;;6.70;99.90;;;;;;5086230;28;20117;-79
2023/04/14 09:05:17;;;;;;;8.47;3.73;;;6.80;99.90;;;;;;5086241;28;20225;-78
2023/04/14 09:07:43;;;;;;;9.10;3.93;;;6.80;99.90;;;;;;5066977;28;20031;-79
2023/04/14 09:10:10;;;;;;;7.30;3.63;;;6.90;99.90;;;;;;5086493;28;20038;-79
2023/04/14 09:12:38;;;;;;;5.00;3.40;;;7.00;99.90;;;;;;5091148;28;20109;-79
2023/04/14 09:15:04;;;;;;;6.43;3.50;;;7.10;99.90;;;;;;5091045;28;20048;-79
2023/04/14 09:17:30;;;;;;;8.00;3.97;;;7.10;99.90;;;;;;5088232;28;20055;-80
2023/04/14 09:19:56;;;;;;;8.40;3.83;;;7.10;99.90;;;;;;5087466;28;20042;-79
2023/04/14 09:22:21;;;;;;;6.60;3.27;;;7.10;99.90;;;;;;5089000;28;20036;-79
2023/04/14 09:24:47;;;;;;;9.13;4.40;;;7.10;99.90;;;;;;5086328;28;20024;-79
2023/04/14 09:27:13;;;;;;;9.33;4.60;;;7.10;99.90;;;;;;5087901;28;20085;-79
2023/04/14 09:29:40;;;;;;;7.93;3.60;;;7.00;99.90;;;;;;5088168;28;20115;-79
2023/04/14 09:32:06;;;;;;;9.67;3.80;;;7.10;99.90;;;;;;5086000;28;20040;-79
2023/04/14 09:34:32;;;;;;;5.00;3.50;;;7.20;99.90;;;;;;5085378;28;21364;-78
2023/04/14 09:37:04;;;;;;;8.10;3.83;;;7.20;99.90;;;;;;5086350;28;20095;-79
2023/04/14 09:39:31;;;;;;;7.97;3.67;;;7.30;99.90;;;;;;5084566;28;20395;-79
2023/04/14 09:41:57;;;;;;;7.67;3.90;;;7.40;99.90;;;;;;5084931;28;20162;-79
2023/04/14 09:44:22;;;;;;;6.07;3.67;;;7.50;99.90;;;;;;5085300;28;20065;-79
2023/04/14 09:47:06;;;;;;;7.73;3.90;;;7.50;99.90;;;;;;5063904;28;20031;-78
2023/04/14 09:49:32;;;;;;;7.90;4.00;;;7.50;99.90;;;;;;5085889;28;20486;-79
2023/04/14 09:52:08;;;;;;;6.47;3.93;;;7.50;99.90;;;;;;5094277;28;20036;-79
2023/04/14 09:54:34;;;;;;;8.20;4.33;;;7.40;99.90;;;;;;5095255;28;20028;-79
2023/04/14 09:57:01;;;;;;;8.33;4.10;;;7.40;99.90;;;;;;5091964;28;20028;-79
2023/04/14 09:59:37;;;;;;;12.47;4.17;;;7.40;99.90;;;;;;5090281;28;20493;-79
2023/04/14 10:02:05;;;;;;;6.63;3.90;;;7.60;99.90;;;;;;5090771;28;20104;-79
2023/04/14 10:04:31;;;;;;;8.37;3.43;;;7.60;99.90;;;;;;5089892;28;20104;-79
2023/04/14 10:06:58;;;;;;;6.03;3.33;;;7.60;99.90;;;;;;5091001;28;20023;-79
2023/04/14 10:09:28;;;;;;;5.70;3.40;;;7.60;99.90;;;;;;5091141;28;20407;-79
2023/04/14 10:12:07;;;;;;;7.27;3.10;;;7.60;99.90;;;;;;5085836;28;20059;-79
2023/04/14 10:14:33;;;;;;;7.13;3.10;;;7.60;99.90;;;;;;5086054;28;20050;-79
2023/04/14 10:17:01;;;;;;;7.00;3.50;;;7.60;99.90;;;;;;5088104;28;20028;-79
2023/04/14 10:19:27;;;;;;;7.43;3.40;;;7.60;99.90;;;;;;5092887;28;20027;-78
2023/04/14 10:21:53;;;;;;;7.40;3.50;;;7.60;99.90;;;;;;5072868;28;20047;-79
2023/04/14 10:24:20;;;;;;;5.53;3.90;;;7.70;99.90;;;;;;5089879;28;20032;-79
2023/04/14 10:26:48;;;;;;;6.70;3.10;;;7.80;99.90;;;;;;5093180;28;20036;-79
2023/04/14 10:29:15;;;;;;;7.63;3.37;;;8.00;99.90;;;;;;5090914;28;20111;-83
2023/04/14 10:31:46;;;;;;;8.30;3.80;;;8.10;99.90;;;;;;5089763;28;20408;-79
2023/04/14 10:34:14;;;;;;;5.43;3.40;;;8.10;99.90;;;;;;5090161;28;20028;-79
2023/04/14 10:36:41;;;;;;;5.13;3.50;;;8.20;99.90;;;;;;5091713;28;20031;-81
2023/04/14 10:39:08;;;;;;;5.70;3.50;;;8.30;99.90;;;;;;5092632;28;20031;-79
2023/04/14 10:41:46;;;;;;;5.53;3.33;;;8.40;99.90;;;;;;5072650;28;20047;-79
2023/04/14 10:44:33;;;;;;;7.23;3.43;;;8.40;99.90;;;;;;5094156;28;20027;-79
2023/04/14 10:47:00;;;;;;;5.47;3.00;;;8.50;99.90;;;;;;5081404;28;20028;-79
2023/04/14 10:49:32;;;;;;;7.10;3.73;;;8.50;99.90;;;;;;5083259;28;21128;-78
2023/04/14 10:52:02;;;;;;;8.03;3.50;;;8.60;99.90;;;;;;5083517;28;20396;-78
2023/04/14 10:54:49;;;;;;;7.23;3.83;;;8.50;99.90;;;;;;5083427;28;20027;-79
2023/04/14 10:57:14;;;;;;;6.43;3.40;;;8.60;99.90;;;;;;5081932;28;20031;-78
2023/04/14 10:59:41;;;;;;;9.67;3.90;;;8.80;99.90;;;;;;5081585;28;20027;-79
2023/04/14 11:02:26;;;;;;;8.30;3.53;;;8.80;99.90;;;;;;5083518;28;20170;-79
2023/04/14 11:04:58;;;;;;;8.00;3.88;;;9.00;99.90;;;;;;5083530;28;20115;-79
2023/04/14 11:07:24;;;;;;;4.30;2.90;;;9.10;99.90;;;;;;5079229;28;20040;-79
2023/04/14 11:09:50;;;;;;;4.90;3.00;;;9.20;99.90;;;;;;5081559;28;20090;-79
2023/04/14 11:12:24;;;;;;;7.47;3.10;;;9.20;99.90;;;;;;5081855;28;20069;-78
2023/04/14 11:15:03;;;;;;;6.50;3.15;;;9.30;99.90;;;;;;5083299;28;20046;-80
2023/04/14 11:17:31;;;;;;;5.07;3.17;;;9.50;99.90;;;;;;5080613;28;20040;-79
2023/04/14 11:19:57;;;;;;;5.37;2.80;;;9.80;99.90;;;;;;5081495;28;20084;-79
2023/04/14 11:22:44;;;;;;;7.13;3.33;;;9.90;99.90;;;;;;5079244;28;20038;-77
2023/04/14 11:25:12;;;;;;;5.67;2.90;;;10.10;99.90;;;;;;5078778;28;20108;-77
2023/04/14 11:27:38;;;;;;;6.10;3.30;;;10.10;99.90;;;;;;5078414;28;20330;-77
2023/04/14 11:30:12;;;;;;;5.13;2.93;;;10.10;99.90;;;;;;5078243;28;20089;-78
2023/04/14 11:32:49;;;;;;;7.97;3.50;;;10.20;99.90;;;;;;5076319;28;20035;-77
2023/04/14 11:35:16;;;;;;;6.80;3.40;;;10.20;99.90;;;;;;5078724;28;20078;-77
2023/04/14 11:37:42;;;;;;;5.93;3.20;;;10.20;99.90;;;;;;5077703;28;20669;-78
2023/04/14 11:40:12;;;;;;;6.17;3.20;;;10.20;99.90;;;;;;5082366;28;20065;-78
2023/04/14 11:42:42;;;;;;;5.75;2.75;;;10.00;99.90;;;;;;5082715;28;20032;-78
2023/04/14 11:45:08;;;;;;;4.53;2.30;;;9.80;99.90;;;;;;5078565;28;20028;-78
2023/04/14 11:47:34;;;;;;;5.80;2.97;;;9.60;99.90;;;;;;5080175;28;20031;-78
2023/04/14 11:50:03;;;;;;;5.03;2.97;;;9.40;99.90;;;;;;5083438;28;20040;-78
2023/04/14 11:52:30;;;;;;;7.37;3.57;;;9.30;99.90;;;;;;5086850;28;20027;-77
2023/04/14 11:54:55;;;;;;;7.43;3.27;;;9.20;99.90;;;;;;5084148;28;20023;-77
2023/04/14 11:57:21;;;;;;;7.40;3.17;;;9.10;99.90;;;;;;5086042;28;20616;-77
2023/04/14 11:59:47;;;;;;;8.80;3.80;;;9.00;99.90;;;;;;5085493;28;20035;-77
2023/04/14 12:02:16;;;;;;;7.63;3.20;;;9.00;99.90;;;;;;5085170;28;20036;-77
2023/04/14 12:04:45;;;;;;;9.20;3.67;;;8.90;99.90;;;;;;5080602;28;20039;-78
2023/04/14 12:07:13;;;;;;;6.10;3.50;;;9.00;99.90;;;;;;5083982;28;20096;-78
2023/04/14 12:09:43;;;;;;;5.57;3.00;;;9.00;99.90;;;;;;5083325;28;20078;-77
2023/04/14 12:12:13;;;;;;;5.23;3.20;;;8.90;99.90;;;;;;5084144;28;20032;-78
2023/04/14 12:14:48;;;;;;;8.03;3.80;;;8.80;99.90;;;;;;5083916;28;20159;-78
2023/04/14 12:17:15;;;;;;;9.87;4.03;;;8.80;99.90;;;;;;5083992;28;20031;-77
2023/04/14 12:19:42;;;;;;;6.63;4.10;;;8.70;99.90;;;;;;5086404;28;20112;-77
2023/04/14 12:22:09;;;;;;;6.73;3.30;;;8.50;99.90;;;;;;5086756;28;20055;-77
2023/04/14 12:24:39;;;;;;;8.73;3.90;;;8.40;99.90;;;;;;5087218;28;20135;-78
2023/04/14 12:27:06;;;;;;;7.27;3.27;;;8.40;99.90;;;;;;5085983;28;20063;-77
2023/04/14 12:29:33;;;;;;;7.20;3.40;;;8.40;99.90;;;;;;5085477;28;20672;-77
2023/04/14 12:32:00;;;;;;;8.43;3.80;;;8.40;99.90;;;;;;5087840;28;20031;-77
2023/04/14 12:34:27;;;;;;;7.07;3.23;;;8.50;99.90;;;;;;5085991;28;20043;-77
2023/04/14 12:36:52;;;;;;;9.83;3.20;;;8.50;99.90;;;;;;5084499;28;20069;-77
2023/04/14 12:39:20;;;;;;;6.13;3.07;;;8.50;99.90;;;;;;5086673;28;20024;-78
2023/04/14 12:41:46;;;;;;;4.53;3.30;;;8.40;99.90;;;;;;5086368;28;20116;-78
2023/04/14 12:44:15;;;;;;;5.73;3.17;;;8.30;99.90;;;;;;5084783;28;20024;-78
2023/04/14 12:46:51;;;;;;;9.10;3.40;;;8.20;99.90;;;;;;5086080;28;20072;-79
2023/04/14 12:49:36;;;;;;;6.20;3.70;;;8.20;99.90;;;;;;5087031;28;20032;-78
2023/04/14 12:52:03;;;;;;;3.83;2.20;;;8.10;99.90;;;;;;5086555;28;20077;-78
2023/04/14 12:54:53;;;;;;;5.80;2.20;;;8.10;99.90;;;;;;5086931;28;20487;-77
2023/04/14 12:57:22;;;;;;;4.90;2.07;;;7.80;99.90;;;;;;5085128;28;20024;-77